Time;durP1;ratioP1;P1;durP2;ratioP2;P2;SDS_P1;SDS_P2;PMS_P1;PMS_P2;Temp;Humidity;BMP_temperature;BMP_pressure;BME280_temperature;BME280_humidity;BME280_pressure;Samples;Min_cycle;Max_cycle;Signal;HPM_P1;HPM_P2
2023/12/18 00:01:42;;;;;;;20.60;15.77;;;;;;;1.05;100.00;151638.00;5085166;28;20456;-80
2023/12/18 00:04:10;;;;;;;19.63;17.53;;;;;;;1.09;100.00;151649.53;5083942;28;20896;-80
2023/12/18 00:06:36;;;;;;;25.67;18.40;;;;;;;1.12;100.00;151657.25;5088556;28;20804;-80
2023/12/18 00:09:03;;;;;;;21.87;18.10;;;;;;;1.12;100.00;151657.25;5083844;28;20461;-80
2023/12/18 00:11:30;;;;;;;21.90;17.40;;;;;;;1.11;100.00;151654.66;5087629;28;20468;-80
2023/12/18 00:13:56;;;;;;;22.63;18.30;;;;;;;1.13;100.00;151659.84;5088283;28;20449;-79
2023/12/18 00:16:23;;;;;;;22.93;19.03;;;;;;;1.16;100.00;151667.56;5085035;28;21036;-80
2023/12/18 00:18:51;;;;;;;20.17;16.10;;;;;;;1.18;100.00;151672.69;5077349;28;20471;-79
2023/12/18 00:21:17;;;;;;;20.50;16.93;;;;;;;1.23;100.00;151685.53;5089296;28;20592;-79
2023/12/18 00:23:44;;;;;;;23.87;18.20;;;;;;;1.29;100.00;151698.38;5088025;28;20675;-80
2023/12/18 00:26:10;;;;;;;21.87;16.40;;;;;;;1.32;100.00;151706.06;5082109;28;20808;-80
2023/12/18 00:28:37;;;;;;;20.17;16.90;;;;;;;1.29;100.00;151699.66;5078565;28;20448;-80
2023/12/18 00:31:04;;;;;;;20.03;16.50;;;;;;;1.26;100.00;151690.66;5089617;28;20456;-80
2023/12/18 00:33:30;;;;;;;19.13;16.77;;;;;;;1.23;100.00;151684.22;5084603;28;20891;-79
2023/12/18 00:35:58;;;;;;;17.17;15.33;;;;;;;1.21;100.00;151680.41;5079078;28;20453;-80
2023/12/18 00:38:25;;;;;;;21.27;16.30;;;;;;;1.18;100.00;151672.69;5088646;28;20811;-80
2023/12/18 00:40:51;;;;;;;19.30;15.80;;;;;;;1.19;100.00;151675.22;5085810;28;20475;-80
2023/12/18 00:43:18;;;;;;;18.87;15.87;;;;;;;1.16;100.00;151667.56;5088704;28;20444;-80
2023/12/18 00:45:44;;;;;;;19.20;16.60;;;;;;;1.12;100.00;151655.97;5079479;28;20836;-79
2023/12/18 00:48:11;;;;;;;20.23;16.10;;;;;;;1.06;100.00;151640.56;5086783;28;20482;-79
2023/12/18 00:50:38;;;;;;;20.50;16.27;;;;;;;1.01;100.00;151628.97;5084972;28;20745;-80
2023/12/18 00:53:06;;;;;;;19.90;16.00;;;;;;;0.98;100.00;151621.28;5087337;28;20900;-79
2023/12/18 00:55:32;;;;;;;21.60;16.27;;;;;;;0.95;100.00;151613.59;5078223;28;20456;-80
2023/12/18 00:57:59;;;;;;;19.10;15.53;;;;;;;0.91;100.00;151602.00;5070756;28;20461;-79
2023/12/18 01:00:25;;;;;;;19.30;15.27;;;;;;;0.89;100.00;151598.19;5069510;28;20448;-79
2023/12/18 01:02:52;;;;;;;21.37;16.57;;;;;;;0.89;100.00;151598.19;5081869;28;20895;-79
2023/12/18 01:05:18;;;;;;;17.03;14.43;;;;;;;0.91;100.00;151602.00;5035475;28;20459;-80
2023/12/18 01:07:45;;;;;;;20.37;15.23;;;;;;;0.91;100.00;151603.31;5037823;28;20442;-79
2023/12/18 01:10:13;;;;;;;15.23;13.60;;;;;;;0.88;100.00;151595.59;5058825;28;20992;-80
2023/12/18 01:12:39;;;;;;;20.50;15.20;;;;;;;0.89;100.00;151598.19;5045122;28;20468;-80
2023/12/18 01:15:06;;;;;;;17.30;14.10;;;;;;;0.89;100.00;151598.19;5070890;28;20453;-80
2023/12/18 01:17:33;;;;;;;16.50;13.97;;;;;;;0.89;100.00;151598.19;5067343;28;20516;-80
2023/12/18 01:19:59;;;;;;;17.90;12.90;;;;;;;0.92;100.00;151605.91;5069103;28;20499;-79
2023/12/18 01:22:26;;;;;;;17.00;14.13;;;;;;;0.94;100.00;151611.03;5064267;28;20458;-79
2023/12/18 01:24:52;;;;;;;14.80;12.40;;;;;;;0.94;100.00;151611.03;5053052;28;20469;-79
2023/12/18 01:27:20;;;;;;;18.27;13.90;;;;;;;0.95;100.00;151613.59;5065380;28;20442;-79
2023/12/18 01:29:47;;;;;;;14.87;13.00;;;;;;;0.96;100.00;151614.84;5052174;28;20509;-79
2023/12/18 01:32:13;;;;;;;17.83;12.97;;;;;;;0.94;100.00;151611.03;5045118;28;20473;-79
2023/12/18 01:34:40;;;;;;;16.03;13.33;;;;;;;0.94;100.00;151611.03;5067656;28;20437;-80
2023/12/18 01:37:07;;;;;;;16.00;14.00;;;;;;;0.92;100.00;151605.91;5036847;28;20511;-80
2023/12/18 01:39:34;;;;;;;15.03;12.53;;;;;;;0.90;100.00;151599.47;5041971;28;20447;-80
2023/12/18 01:42:01;;;;;;;17.90;13.93;;;;;;;0.87;100.00;151593.06;5062137;28;20458;-80
2023/12/18 01:44:29;;;;;;;17.40;14.00;;;;;;;0.85;100.00;151586.63;5045307;28;20446;-80
2023/12/18 01:46:56;;;;;;;18.43;14.87;;;;;;;0.85;100.00;151586.63;5049910;28;20983;-80
2023/12/18 01:49:23;;;;;;;17.33;13.63;;;;;;;0.84;100.00;151585.34;5065181;28;20458;-80
2023/12/18 01:51:50;;;;;;;18.47;15.20;;;;;;;0.84;100.00;151585.34;5067610;28;20808;-80
2023/12/18 01:54:19;;;;;;;18.13;13.67;;;;;;;0.86;100.00;151590.47;5053461;28;20453;-80
2023/12/18 01:56:46;;;;;;;17.40;13.47;;;;;;;0.87;100.00;151591.75;5057841;28;20557;-80
2023/12/18 01:59:14;;;;;;;15.57;13.07;;;;;;;0.86;100.00;151590.47;5069565;28;20461;-80
2023/12/18 02:01:43;;;;;;;16.30;13.13;;;;;;;0.86;100.00;151590.47;5061206;28;21081;-80
2023/12/18 02:04:10;;;;;;;15.40;13.13;;;;;;;0.87;100.00;151593.06;5083170;28;20952;-80
2023/12/18 02:06:37;;;;;;;16.07;14.27;;;;;;;0.86;100.00;151590.47;5092649;28;20439;-80
2023/12/18 02:09:04;;;;;;;18.60;15.30;;;;;;;0.84;100.00;151584.06;5068652;28;21622;-80
2023/12/18 02:11:30;;;;;;;16.53;13.40;;;;;;;0.83;100.00;151582.75;5078718;28;20963;-80
2023/12/18 02:13:57;;;;;;;16.43;13.73;;;;;;;0.82;100.00;151580.16;5091339;28;20950;-80
2023/12/18 02:16:24;;;;;;;15.40;13.43;;;;;;;0.80;100.00;151573.75;5086193;28;20483;-80
2023/12/18 02:18:52;;;;;;;17.37;12.87;;;;;;;0.81;100.00;151577.63;5068732;28;21031;-80
2023/12/18 02:21:22;;;;;;;15.07;13.47;;;;;;;0.79;100.00;151572.50;5085931;28;20456;-80
2023/12/18 02:23:50;;;;;;;13.70;12.30;;;;;;;0.78;100.00;151569.91;5084157;28;20445;-80
2023/12/18 02:26:17;;;;;;;14.70;12.37;;;;;;;0.79;100.00;151572.50;5065056;28;20446;-80
2023/12/18 02:28:44;;;;;;;14.00;12.50;;;;;;;0.78;100.00;151568.63;5091259;28;20494;-80
2023/12/18 02:31:13;;;;;;;14.70;12.67;;;;;;;0.78;100.00;151569.91;5078649;28;20443;-80
2023/12/18 02:33:40;;;;;;;14.50;11.77;;;;;;;0.78;100.00;151569.91;5082250;28;20465;-80
2023/12/18 02:36:07;;;;;;;10.87;9.70;;;;;;;0.77;100.00;151567.34;5088675;28;20479;-80
2023/12/18 02:38:34;;;;;;;15.90;12.00;;;;;;;0.78;100.00;151569.91;5090011;28;20479;-80
2023/12/18 02:41:02;;;;;;;17.30;13.63;;;;;;;0.79;100.00;151572.50;5081580;28;20560;-81
2023/12/18 02:43:28;;;;;;;15.20;12.67;;;;;;;0.80;100.00;151573.75;5084025;28;20445;-80
2023/12/18 02:45:55;;;;;;;14.70;11.90;;;;;;;0.77;100.00;151566.09;5085287;28;20482;-80
2023/12/18 02:48:21;;;;;;;14.23;10.80;;;;;;;0.78;100.00;151569.91;5082971;28;20430;-80
2023/12/18 02:50:48;;;;;;;13.10;11.10;;;;;;;0.80;100.00;151575.03;5091156;28;20795;-80
2023/12/18 02:53:17;;;;;;;14.20;10.70;;;;;;;0.82;100.00;151580.16;5078496;28;20457;-81
2023/12/18 02:55:44;;;;;;;13.07;10.63;;;;;;;0.82;100.00;151578.94;5087970;28;20853;-80
2023/12/18 02:58:12;;;;;;;11.63;10.30;;;;;;;0.81;100.00;151576.34;5080973;28;20468;-81
2023/12/18 03:00:38;;;;;;;11.30;9.90;;;;;;;0.81;100.00;151577.63;5090281;28;20511;-81
2023/12/18 03:03:05;;;;;;;15.10;10.60;;;;;;;0.82;100.00;151580.16;5084012;28;21014;-81
2023/12/18 03:05:31;;;;;;;10.53;8.70;;;;;;;0.86;100.00;151590.47;5090631;28;20548;-81
2023/12/18 03:07:58;;;;;;;9.30;7.80;;;;;;;0.85;100.00;151587.88;5092497;28;20430;-81
2023/12/18 03:10:24;;;;;;;9.57;8.57;;;;;;;0.87;100.00;151593.06;5085728;28;20453;-81
2023/12/18 03:12:51;;;;;;;9.50;7.47;;;;;;;0.90;100.00;151600.72;5095247;28;20464;-80
2023/12/18 03:15:19;;;;;;;8.63;7.73;;;;;;;0.91;100.00;151603.31;5093367;28;20507;-81
2023/12/18 03:17:45;;;;;;;9.03;7.40;;;;;;;0.93;100.00;151608.44;5094126;28;20861;-81
2023/12/18 03:20:12;;;;;;;9.50;7.87;;;;;;;0.94;100.00;151611.03;5079183;28;20457;-81
2023/12/18 03:22:38;;;;;;;9.10;7.67;;;;;;;0.95;100.00;151612.31;5072316;28;20456;-81
2023/12/18 03:25:06;;;;;;;8.40;6.97;;;;;;;0.96;100.00;151614.84;5097975;28;20455;-81
2023/12/18 03:27:33;;;;;;;7.60;6.80;;;;;;;0.96;100.00;151614.84;5091305;28;20429;-81
2023/12/18 03:29:59;;;;;;;9.30;7.80;;;;;;;0.97;100.00;151617.44;5070516;28;20827;-81
2023/12/18 03:32:27;;;;;;;8.27;7.43;;;;;;;0.96;100.00;151614.84;5085161;28;20457;-81
2023/12/18 03:34:53;;;;;;;8.10;7.30;;;;;;;0.96;100.00;151614.84;5085530;28;20460;-81
2023/12/18 03:37:20;;;;;;;7.87;6.50;;;;;;;0.97;100.00;151618.72;5072548;28;20865;-81
2023/12/18 03:39:46;;;;;;;10.57;6.90;;;;;;;0.97;100.00;151618.72;5088989;28;20461;-81
2023/12/18 03:42:13;;;;;;;10.20;6.53;;;;;;;0.97;100.00;151618.72;5090325;28;20510;-81
2023/12/18 03:44:42;;;;;;;7.40;6.70;;;;;;;0.98;100.00;151621.28;5084495;28;21013;-81
2023/12/18 03:47:08;;;;;;;9.60;7.23;;;;;;;0.97;100.00;151617.44;5067460;28;20528;-81
2023/12/18 03:49:36;;;;;;;10.93;7.70;;;;;;;0.98;100.00;151620.03;5090054;28;20433;-81
2023/12/18 03:52:03;;;;;;;8.20;6.70;;;;;;;0.95;100.00;151613.59;5082730;28;20537;-81
2023/12/18 03:54:30;;;;;;;8.20;7.17;;;;;;;0.95;100.00;151613.59;5084991;28;20460;-81
2023/12/18 03:56:56;;;;;;;7.83;7.00;;;;;;;0.94;100.00;151611.03;5067301;28;20469;-81
2023/12/18 03:59:23;;;;;;;9.43;6.77;;;;;;;0.93;100.00;151608.44;5091196;28;20445;-81
2023/12/18 04:01:49;;;;;;;8.70;6.57;;;;;;;0.90;100.00;151600.72;5080793;28;20448;-81
2023/12/18 04:04:16;;;;;;;10.37;7.83;;;;;;;0.89;100.00;151598.19;5090616;28;20473;-81
2023/12/18 04:06:44;;;;;;;11.57;8.17;;;;;;;0.89;100.00;151598.19;5087273;28;20455;-81
2023/12/18 04:09:11;;;;;;;10.13;7.03;;;;;;;0.89;100.00;151598.19;5087269;28;20465;-80
2023/12/18 04:11:37;;;;;;;10.63;7.60;;;;;;;0.86;100.00;151590.47;5084476;28;20878;-81
2023/12/18 04:14:04;;;;;;;9.70;7.80;;;;;;;0.84;100.00;151584.06;5087599;28;20460;-80
2023/12/18 04:16:31;;;;;;;9.67;7.80;;;;;;;0.81;100.00;151576.34;5080449;28;20518;-81
2023/12/18 04:18:57;;;;;;;9.30;7.33;;;;;;;0.77;100.00;151567.34;5085706;28;20477;-80
2023/12/18 04:21:24;;;;;;;9.37;7.77;;;;;;;0.76;100.00;151564.81;5049174;28;20429;-79
2023/12/18 04:23:52;;;;;;;9.27;8.20;;;;;;;0.78;100.00;151569.91;5085593;28;20451;-79
2023/12/18 04:26:18;;;;;;;12.13;8.30;;;;;;;0.77;100.00;151567.34;5071220;28;21236;-79
2023/12/18 04:28:45;;;;;;;9.47;7.40;;;;;;;0.76;100.00;151563.50;5086069;28;20819;-79
2023/12/18 04:31:11;;;;;;;7.83;6.73;;;;;;;0.77;100.00;151566.09;5072949;28;20454;-80
2023/12/18 04:33:38;;;;;;;7.87;6.70;;;;;;;0.76;100.00;151564.81;5072738;28;20448;-80
2023/12/18 04:36:06;;;;;;;8.50;7.00;;;;;;;0.75;100.00;151562.22;5057545;28;20485;-80
2023/12/18 04:38:33;;;;;;;9.27;7.70;;;;;;;0.76;100.00;151564.81;5074805;28;20469;-80
2023/12/18 04:41:01;;;;;;;8.07;7.23;;;;;;;0.76;100.00;151564.81;5084274;28;20544;-80
2023/12/18 04:43:29;;;;;;;9.67;7.27;;;;;;;0.77;100.00;151566.09;5076339;28;20445;-81
2023/12/18 04:45:55;;;;;;;8.93;7.27;;;;;;;0.76;100.00;151564.81;5079362;28;20450;-81
2023/12/18 04:48:22;;;;;;;10.00;7.57;;;;;;;0.73;100.00;151557.09;5089404;28;20437;-79
2023/12/18 04:50:48;;;;;;;8.70;7.80;;;;;;;0.70;100.00;151548.09;5084678;28;20472;-80
2023/12/18 04:53:15;;;;;;;9.37;8.13;;;;;;;0.68;100.00;151542.97;5075999;28;20448;-80
2023/12/18 04:55:42;;;;;;;8.80;7.90;;;;;;;0.63;100.00;151530.13;5078099;28;20781;-80
2023/12/18 04:58:09;;;;;;;8.30;7.23;;;;;;;0.56;100.00;151514.69;5065729;28;20572;-80
2023/12/18 05:00:36;;;;;;;10.93;8.40;;;;;;;0.55;100.00;151512.16;5083856;28;20537;-80
2023/12/18 05:03:02;;;;;;;9.40;8.00;;;;;;;0.54;100.00;151508.28;5083876;28;20492;-80
2023/12/18 05:05:29;;;;;;;9.20;7.80;;;;;;;0.54;100.00;151509.59;5079367;28;20846;-80
2023/12/18 05:07:56;;;;;;;8.73;7.30;;;;;;;0.56;100.00;151513.41;5086127;28;20786;-80
2023/12/18 05:10:22;;;;;;;10.20;7.47;;;;;;;0.56;100.00;151513.41;5080550;28;20818;-80
2023/12/18 05:12:49;;;;;;;9.87;7.97;;;;;;;0.55;100.00;151510.88;5082823;28;20468;-80
2023/12/18 05:15:16;;;;;;;9.63;7.43;;;;;;;0.55;100.00;151510.88;5075376;28;20461;-80
2023/12/18 05:17:43;;;;;;;13.17;9.10;;;;;;;0.57;100.00;151517.28;5081560;28;20472;-80
2023/12/18 05:20:12;;;;;;;12.70;10.60;;;;;;;0.59;100.00;151521.13;5087404;28;20457;-80
2023/12/18 05:22:39;;;;;;;12.20;9.93;;;;;;;0.60;100.00;151523.72;5072702;28;20450;-80
2023/12/18 05:25:06;;;;;;;11.70;10.50;;;;;;;0.53;100.00;151505.75;5080929;28;20445;-80
2023/12/18 05:27:33;;;;;;;9.77;7.53;;;;;;;0.47;100.00;151490.34;5078158;28;20434;-80
2023/12/18 05:29:59;;;;;;;8.63;6.63;;;;;;;0.45;100.00;151485.22;5083555;28;20451;-80
2023/12/18 05:32:28;;;;;;;6.50;5.87;;;;;;;0.43;100.00;151480.03;5046624;28;20453;-80
2023/12/18 05:34:55;;;;;;;7.17;6.37;;;;;;;0.40;100.00;151472.31;5088348;28;20950;-80
2023/12/18 05:37:22;;;;;;;6.87;5.93;;;;;;;0.41;100.00;151476.22;5080842;28;20437;-80
2023/12/18 05:39:48;;;;;;;7.07;5.70;;;;;;;0.42;100.00;151477.50;5078611;28;20445;-80
2023/12/18 05:42:17;;;;;;;7.70;6.10;;;;;;;0.45;100.00;151486.44;5076204;28;20441;-79
2023/12/18 05:44:43;;;;;;;6.77;5.87;;;;;;;0.47;100.00;151490.34;5081601;28;20457;-80
2023/12/18 05:47:10;;;;;;;7.87;6.30;;;;;;;0.48;100.00;151492.88;5083645;28;20437;-80
2023/12/18 05:49:38;;;;;;;8.80;6.37;;;;;;;0.49;100.00;151495.44;5081391;28;20829;-80
2023/12/18 05:52:05;;;;;;;7.20;6.47;;;;;;;0.52;100.00;151503.16;5085218;28;20442;-80
2023/12/18 05:54:31;;;;;;;8.33;7.20;;;;;;;0.52;100.00;151504.47;5083641;28;20512;-80
2023/12/18 05:56:58;;;;;;;9.43;7.43;;;;;;;0.52;100.00;151503.16;5087150;28;20475;-80
2023/12/18 05:59:24;;;;;;;15.90;9.90;;;;;;;0.52;100.00;151503.16;5083122;28;20841;-80
2023/12/18 06:01:51;;;;;;;9.17;8.03;;;;;;;0.53;100.00;151505.75;5078143;28;20497;-80
2023/12/18 06:04:17;;;;;;;7.93;7.00;;;;;;;0.52;100.00;151503.16;5087252;28;20472;-80
2023/12/18 06:06:45;;;;;;;9.40;7.77;;;;;;;0.53;100.00;151505.75;5087277;28;20452;-80
2023/12/18 06:09:12;;;;;;;9.73;7.30;;;;;;;0.53;100.00;151505.75;5071315;28;20857;-79
2023/12/18 06:11:38;;;;;;;9.00;7.70;;;;;;;0.51;100.00;151501.88;5078492;28;20458;-80
2023/12/18 06:14:05;;;;;;;9.47;8.47;;;;;;;0.48;100.00;151492.88;5084027;28;20457;-80
2023/12/18 06:16:31;;;;;;;10.60;8.47;;;;;;;0.45;100.00;151485.22;5077433;28;20453;-80
2023/12/18 06:18:59;;;;;;;8.70;7.60;;;;;;;0.43;100.00;151480.03;5082541;28;20468;-80
2023/12/18 06:21:25;;;;;;;9.77;7.93;;;;;;;0.40;100.00;151472.31;5068633;28;20536;-80
2023/12/18 06:23:53;;;;;;;10.07;8.40;;;;;;;0.38;100.00;151467.19;5082508;28;20453;-81
2023/12/18 06:26:20;;;;;;;11.00;9.43;;;;;;;0.35;100.00;151460.78;5074385;28;20790;-80
2023/12/18 06:28:46;;;;;;;9.10;7.70;;;;;;;0.32;100.00;151451.84;5064421;28;20453;-80
2023/12/18 06:31:15;;;;;;;11.33;8.50;;;;;;;0.29;100.00;151444.13;5068002;28;20548;-80
2023/12/18 06:33:41;;;;;;;10.47;8.73;;;;;;;0.29;100.00;151444.13;5080810;28;20820;-80
2023/12/18 06:36:08;;;;;;;10.13;8.70;;;;;;;0.28;100.00;151441.53;5067996;28;20816;-80
2023/12/18 06:38:35;;;;;;;11.53;8.83;;;;;;;0.27;100.00;151438.97;5066777;28;20476;-80
2023/12/18 06:41:05;;;;;;;9.63;8.63;;;;;;;0.23;100.00;151428.72;5082887;28;20458;-80
2023/12/18 06:43:32;;;;;;;9.50;8.30;;;;;;;0.20;100.00;151422.28;5086253;28;20481;-80
2023/12/18 06:46:01;;;;;;;10.00;7.77;;;;;;;0.19;100.00;151419.72;5074162;28;20459;-80
2023/12/18 06:48:29;;;;;;;10.67;8.60;;;;;;;0.18;100.00;151417.19;5085957;28;20449;-80
2023/12/18 06:50:55;;;;;;;8.40;7.13;;;;;;;0.20;100.00;151421.00;5080442;28;20451;-80
2023/12/18 06:53:22;;;;;;;8.00;6.10;;;;;;;0.19;100.00;151419.72;5085765;28;20453;-80
2023/12/18 06:55:48;;;;;;;9.40;6.53;;;;;;;0.22;100.00;151426.13;5086633;28;21037;-80
2023/12/18 06:58:16;;;;;;;9.50;6.50;;;;;;;0.25;100.00;151435.13;5081131;28;20469;-80
2023/12/18 07:00:43;;;;;;;8.43;6.97;;;;;;;0.28;100.00;151442.84;5080334;28;20563;-80
2023/12/18 07:03:09;;;;;;;8.57;7.17;;;;;;;0.30;100.00;151447.97;5075074;28;20570;-80
2023/12/18 07:05:36;;;;;;;7.70;6.27;;;;;;;0.33;100.00;151455.66;5080774;28;20489;-80
2023/12/18 07:08:03;;;;;;;7.37;6.30;;;;;;;0.35;100.00;151459.50;5082347;28;20457;-81
2023/12/18 07:10:30;;;;;;;11.67;6.50;;;;;;;0.35;100.00;151459.50;5085045;28;21079;-79
2023/12/18 07:12:57;;;;;;;7.13;5.90;;;;;;;0.37;100.00;151464.66;5087496;28;20538;-79
2023/12/18 07:15:25;;;;;;;7.57;6.77;;;;;;;0.37;100.00;151464.66;5072050;28;20906;-80
2023/12/18 07:17:52;;;;;;;11.53;9.27;;;;;;;0.38;100.00;151467.19;5079943;28;20456;-80
2023/12/18 07:20:18;;;;;;;11.80;9.27;;;;;;;0.36;100.00;151462.09;5073121;28;21002;-80
2023/12/18 07:22:45;;;;;;;11.60;8.93;;;;;;;0.31;100.00;151450.53;5081324;28;20461;-80
2023/12/18 07:25:12;;;;;;;9.90;8.40;;;;;;;0.25;100.00;151435.13;5085826;28;20456;-80
2023/12/18 07:27:38;;;;;;;7.77;6.67;;;;;;;0.22;100.00;151426.13;5084856;28;20456;-80
2023/12/18 07:30:06;;;;;;;8.57;7.67;;;;;;;0.19;100.00;151418.41;5088135;28;20955;-80
2023/12/18 07:32:35;;;;;;;9.10;6.83;;;;;;;0.18;100.00;151415.88;5084195;28;20457;-80
2023/12/18 07:35:02;;;;;;;8.23;7.27;;;;;;;0.18;100.00;151417.19;5088332;28;20965;-80
2023/12/18 07:37:28;;;;;;;9.23;7.60;;;;;;;0.23;100.00;151428.72;5086464;28;21075;-78
2023/12/18 07:39:55;;;;;;;8.87;7.60;;;;;;;0.31;100.00;151449.25;5079706;28;20515;-80
2023/12/18 07:42:22;;;;;;;9.07;7.70;;;;;;;0.42;100.00;151478.78;5073532;28;20454;-73
2023/12/18 07:44:49;;;;;;;9.60;8.20;;;;;;;0.48;100.00;151494.16;5077048;28;20445;-73
2023/12/18 07:47:15;;;;;;;10.47;8.27;;;;;;;0.52;100.00;151503.16;5073721;28;21308;-73
2023/12/18 07:49:44;;;;;;;8.27;7.33;;;;;;;0.57;100.00;151516.00;5083931;28;20464;-73
2023/12/18 07:52:10;;;;;;;8.70;7.90;;;;;;;0.57;100.00;151517.28;5085157;28;20449;-74
2023/12/18 07:54:37;;;;;;;11.10;8.53;;;;;;;0.58;100.00;151518.59;5082861;28;20448;-73
2023/12/18 07:57:04;;;;;;;8.90;6.97;;;;;;;0.58;100.00;151518.59;5081477;28;20449;-74
2023/12/18 07:59:30;;;;;;;7.10;5.77;;;;;;;0.61;100.00;151526.25;5082652;28;20473;-74
2023/12/18 08:01:57;;;;;;;8.00;6.50;;;;;;;0.64;100.00;151533.94;5082700;28;20455;-74
2023/12/18 08:04:23;;;;;;;10.20;6.97;;;;;;;0.71;100.00;151550.66;5080481;28;20480;-74
2023/12/18 08:06:53;;;;;;;7.60;6.60;;;;;;;0.82;100.00;151578.94;5081087;28;20461;-74
2023/12/18 08:09:20;;;;;;;8.87;7.97;;;;;;;0.95;100.00;151613.59;5082983;28;20943;-74
2023/12/18 08:11:46;;;;;;;8.00;7.20;;;;;;;1.11;100.00;151654.66;5078961;28;20452;-74
2023/12/18 08:14:13;;;;;;;9.23;7.53;;;;;;;1.14;100.00;151662.38;5084446;28;20449;-74
2023/12/18 08:16:39;;;;;;;7.70;6.53;;;;;;;1.17;100.00;151670.09;5075841;28;20582;-74
2023/12/18 08:19:06;;;;;;;7.90;6.97;;;;;;;1.22;100.00;151681.63;5081621;28;20484;-74
2023/12/18 08:21:34;;;;;;;6.57;5.70;;;;;;;1.27;100.00;151693.22;5082296;28;20979;-74
2023/12/18 08:24:02;;;;;;;8.50;6.27;;;;;;;1.33;100.00;151708.63;5081376;28;20460;-74
2023/12/18 08:26:29;;;;;;;6.80;5.80;;;;;;;1.40;100.00;151726.63;5070800;28;20453;-75
2023/12/18 08:28:57;;;;;;;9.13;7.87;;;;;;;1.50;100.00;151753.63;5084052;28;20536;-74
2023/12/18 08:31:23;;;;;;;15.90;13.50;;;;;;;1.73;100.00;151811.41;5082036;28;20449;-75
2023/12/18 08:33:50;;;;;;;16.47;12.30;;;;;;;1.79;100.00;151826.84;5073845;28;20453;-74
2023/12/18 08:36:17;;;;;;;14.60;11.00;;;;;;;1.83;100.00;151837.13;5077640;28;20461;-74
2023/12/18 08:38:44;;;;;;;10.27;8.53;;;;;;;1.95;100.00;151868.00;5074944;28;21069;-74
2023/12/18 08:41:12;;;;;;;13.90;11.20;;;;;;;2.10;100.00;151905.25;5070119;28;21001;-74
2023/12/18 08:43:39;;;;;;;16.67;12.00;;;;;;;2.15;100.00;151919.41;5082355;28;20455;-74
2023/12/18 08:46:15;;;;;;;17.30;11.50;;;;;;;2.16;100.00;151921.97;5081869;28;20539;-74
2023/12/18 08:48:41;;;;;;;16.80;13.07;;;;;;;2.19;100.00;151928.41;5077202;28;20456;-74
2023/12/18 08:51:08;;;;;;;15.83;12.40;;;;;;;2.16;100.00;151921.97;5072298;28;20456;-74
2023/12/18 08:53:35;;;;;;;10.97;9.10;;;;;;;2.13;100.00;151914.25;5080094;28;20510;-74
2023/12/18 08:56:02;;;;;;;10.53;8.40;;;;;;;2.14;100.00;151916.84;5082270;28;21001;-74
2023/12/18 08:58:30;;;;;;;10.20;6.30;;;;;;;2.16;100.00;151920.69;5082557;28;20969;-74
2023/12/18 09:00:57;;;;;;;7.93;6.73;;;;;;;2.17;100.00;151924.53;5094539;28;20456;-73
2023/12/18 09:03:24;;;;;;;9.20;7.20;;;;;;;2.21;100.00;151934.84;5081497;28;20524;-73
2023/12/18 09:05:50;;;;;;;10.07;8.53;;;;;;;2.24;100.00;151942.56;5067583;28;20952;-73
2023/12/18 09:08:17;;;;;;;9.70;8.40;;;;;;;2.25;100.00;151943.84;5074460;28;20476;-73
2023/12/18 09:10:43;;;;;;;9.87;7.50;;;;;;;2.28;100.00;151951.53;5077384;28;20998;-73
2023/12/18 09:13:10;;;;;;;8.77;7.83;;;;;;;2.30;100.00;151956.72;5080256;28;20461;-73
2023/12/18 09:15:40;;;;;;;10.67;8.70;;;;;;;2.32;100.00;151963.13;5082294;28;20465;-73
2023/12/18 09:18:07;;;;;;;7.90;7.10;;;;;;;2.35;100.00;151970.84;5079396;28;20865;-73
2023/12/18 09:20:34;;;;;;;8.50;7.07;;;;;;;2.41;100.00;151984.97;5073230;28;20479;-74
2023/12/18 09:23:10;;;;;;;7.30;6.20;;;;;;;2.44;100.00;151992.69;5083550;28;20547;-75
2023/12/18 09:25:37;;;;;;;6.80;6.20;;;;;;;2.45;100.00;151995.28;5065815;28;20457;-74
2023/12/18 09:28:04;;;;;;;9.33;7.47;;;;;;;2.49;100.00;152004.28;5081185;28;20461;-74
2023/12/18 09:30:30;;;;;;;8.10;7.27;;;;;;;2.50;100.00;152006.84;5070750;28;20478;-73
2023/12/18 09:32:58;;;;;;;9.00;8.00;;;;;;;2.54;100.00;152017.16;5081650;28;20739;-73
2023/12/18 09:35:25;;;;;;;12.77;9.70;;;;;;;2.60;100.00;152032.53;5081633;28;20989;-73
2023/12/18 09:37:51;;;;;;;11.87;9.87;;;;;;;2.61;100.00;152035.13;5078141;28;20573;-73
2023/12/18 09:40:18;;;;;;;10.53;9.53;;;;;;;2.63;100.00;152040.25;5065500;28;20488;-73
2023/12/18 09:42:51;;;;;;;12.83;10.10;;;;;;;2.65;100.00;152045.44;5083283;28;20775;-73
2023/12/18 09:45:21;;;;;;;12.10;9.53;;;;;;;2.67;100.00;152050.56;5071863;28;20487;-73
2023/12/18 09:47:48;;;;;;;12.77;11.20;;;;;;;2.66;100.00;152048.00;5079202;28;20544;-73
2023/12/18 09:50:16;;;;;;;12.60;10.63;;;;;;;2.68;100.00;152053.13;5084137;28;20463;-73
2023/12/18 09:52:47;;;;;;;13.00;11.10;;;;;;;2.68;100.00;152054.41;5079384;28;20462;-73
2023/12/18 09:55:14;;;;;;;11.93;10.07;;;;;;;2.68;100.00;152053.13;5075236;28;20449;-73
2023/12/18 09:57:41;;;;;;;12.07;10.77;;;;;;;2.65;100.00;152045.44;5082762;28;20452;-73
2023/12/18 10:00:12;;;;;;;12.00;9.30;;;;;;;2.65;100.00;152045.44;5081354;28;20541;-74
2023/12/18 10:02:39;;;;;;;10.30;8.80;;;;;;;2.66;100.00;152048.00;5083886;28;20456;-73
2023/12/18 10:05:07;;;;;;;9.03;8.20;;;;;;;2.65;100.00;152046.69;5082650;28;20448;-73
2023/12/18 10:07:35;;;;;;;12.00;8.93;;;;;;;2.63;100.00;152041.56;5086747;28;21034;-73
2023/12/18 10:10:02;;;;;;;10.77;8.00;;;;;;;2.61;100.00;152036.44;5085508;28;20494;-74
2023/12/18 10:12:28;;;;;;;8.80;7.60;;;;;;;2.59;100.00;152030.00;5084547;28;20449;-74
2023/12/18 10:14:55;;;;;;;8.60;7.80;;;;;;;2.58;100.00;152027.41;5085294;28;20448;-74
2023/12/18 10:17:21;;;;;;;11.20;8.67;;;;;;;2.56;100.00;152022.28;5078312;28;20448;-74
2023/12/18 10:19:49;;;;;;;10.20;8.60;;;;;;;2.54;100.00;152018.44;5085672;28;20802;-74
2023/12/18 10:22:17;;;;;;;13.73;8.70;;;;;;;2.54;100.00;152017.16;5088519;28;20457;-73
2023/12/18 10:24:46;;;;;;;10.17;8.23;;;;;;;2.55;100.00;152019.69;5086852;28;20448;-73
2023/12/18 10:27:12;;;;;;;10.30;9.20;;;;;;;2.54;100.00;152018.44;5074336;28;20449;-73
2023/12/18 10:29:39;;;;;;;10.60;9.50;;;;;;;2.56;100.00;152022.28;5083746;28;20441;-75
2023/12/18 10:32:08;;;;;;;11.93;10.73;;;;;;;2.58;100.00;152027.41;5086141;28;21164;-73
2023/12/18 10:34:37;;;;;;;12.97;11.57;;;;;;;2.60;100.00;152032.53;5083798;28;20484;-75
2023/12/18 10:37:04;;;;;;;12.77;11.43;;;;;;;2.63;100.00;152040.25;5073339;28;20547;-74
2023/12/18 10:39:31;;;;;;;13.27;11.63;;;;;;;2.70;100.00;152058.31;5081446;28;20477;-73
2023/12/18 10:41:59;;;;;;;14.37;12.90;;;;;;;2.71;100.00;152060.84;5083035;28;20460;-81
2023/12/18 10:44:26;;;;;;;14.50;13.00;;;;;;;2.75;100.00;152071.16;5086789;28;20457;-81
2023/12/18 10:46:54;;;;;;;18.93;14.80;;;;;;;2.79;100.00;152081.44;5076071;28;20491;-81
2023/12/18 10:49:24;;;;;;;15.90;14.20;;;;;;;2.82;100.00;152089.16;5081749;28;20452;-81
2023/12/18 10:51:51;;;;;;;16.10;14.30;;;;;;;2.85;100.00;152096.88;5083339;28;20463;-81
2023/12/18 10:54:18;;;;;;;15.27;13.63;;;;;;;2.85;100.00;152096.88;5077264;28;20456;-81
2023/12/18 10:56:45;;;;;;;19.53;15.00;;;;;;;2.87;100.00;152102.00;5080808;28;20468;-81
2023/12/18 10:59:14;;;;;;;16.03;14.43;;;;;;;2.90;100.00;152111.03;5072827;28;21037;-82
2023/12/18 11:01:40;;;;;;;16.20;14.60;;;;;;;2.93;100.00;152117.47;5084445;28;20564;-81
2023/12/18 11:04:07;;;;;;;16.10;14.40;;;;;;;2.94;100.00;152120.00;5069059;28;20473;-81
2023/12/18 11:06:34;;;;;;;14.17;12.77;;;;;;;2.97;100.00;152127.75;5077098;28;20461;-81
2023/12/18 11:09:01;;;;;;;13.40;12.00;;;;;;;3.02;100.00;152141.91;5084401;28;20452;-81
2023/12/18 11:11:28;;;;;;;14.73;11.53;;;;;;;3.06;100.00;152152.22;5079466;28;20461;-81
2023/12/18 11:14:04;;;;;;;13.20;11.80;;;;;;;3.10;100.00;152161.19;5082562;28;20468;-81
2023/12/18 11:16:40;;;;;;;13.10;11.60;;;;;;;3.13;100.00;152168.91;5083999;28;20480;-81